Monday, June 25, 2018, 9:40 AM EDT
Back to Local

KWRI, Mcguire Air Force Base

Location: Trenton, NJ, United States Lat: 40.017
Local Time: 9:40 AM EDT (13:40 GMT) Lon: -74.6
Time Zone: US/Eastern Elev: 134 ft

Show me the last for .
Show Decoded

2018-06-25 08:56 METAR KWRI 251256Z AUTO 33011KT 10SM CLR 23/16 A2996 RMK AO2 SLP144 T02290155 $
                 =
2018-06-25 07:56 METAR KWRI 251156Z AUTO 35011KT 10SM CLR 22/15 A2996 RMK AO2 SLP144 T02160154
                 10216 20193 52029 $ =
2018-06-25 06:56 METAR KWRI 251056Z AUTO 33010G15KT 10SM CLR 21/16 A2994 RMK AO2 SLP137 T02070159
                 $ =
2018-06-25 05:56 METAR KWRI 250956Z AUTO 33010KT 10SM CLR 19/17 A2991 RMK AO2 SLP127 T01940168 $
                 =
2018-06-25 04:56 METAR KWRI 250856Z AUTO 29007KT 10SM CLR 20/18 A2987 RMK AO2 SLP114 T01980176
                 52015 $ =
2018-06-25 03:56 METAR KWRI 250756Z AUTO 30007KT 10SM CLR 20/18 A2985 RMK AO2 SLP107 T02000179 $
                 =
2018-06-25 02:56 METAR KWRI 250656Z AUTO 29006KT 10SM CLR 20/19 A2984 RMK AO2 SLP103 T02030188 $
                 =
2018-06-25 01:56 METAR KWRI 250556Z AUTO 30006KT 10SM CLR 21/19 A2983 RMK AO2 SLP100 60000
                 T02070192 10277 20207 50003 $ =
2018-06-25 00:56 METAR KWRI 250456Z AUTO 28005KT 10SM CLR 21/20 A2984 RMK AO2 SLP103 T02120195
                 403160183 $ =
2018-06-24 23:56 METAR KWRI 250356Z 29006KT 10SM CLR 22/20 A2983 RMK AO2A SLP100 T02170198 $ =
2018-06-24 22:56 METAR KWRI 250256Z 27005KT 10SM FEW075 BKN120 23/19 A2982 RMK AO2A SLP097 60000
                 T02260193 53014 $ =
2018-06-24 21:56 METAR KWRI 250156Z AUTO 30007KT 10SM SCT085 24/19 A2982 RMK AO2 SLP097 T02350192
                 $ =
2018-06-24 21:09 METAR KWRI 250109Z 27006KT 10SM CLR 24/19 A2979 RMK SLP087 $ =
2018-06-24 20:56 METAR KWRI 250056Z AUTO 29011G21KT 10SM FEW130 25/20 A2978 RMK AO2 RAB20E31
                 SLP083 P0000 T02480200 $ =
2018-06-24 20:31 METAR KWRI 250031Z 25009KT 10SM FEW150 27/19 A2978 RMK AO2A RAB20E31 SLP083 $ =
2018-06-24 20:20 METAR KWRI 250020Z 25008KT 10SM -RA FEW160 28/19 A2978 RMK AO2A LTG DSNT N RAB20
                 SLP083 $ =
2018-06-24 19:56 METAR KWRI 242356Z 26007KT 10SM FEW190 28/19 A2978 RMK AO2A SLP083 T02770192
                 10316 20275 53004 $ =
2018-06-24 18:56 METAR KWRI 242256Z 24013KT 10SM CLR 29/20 A2976 RMK AO2A SLP076 T02890195 $ =
2018-06-24 17:56 METAR KWRI 242156Z 24008KT 10SM FEW050 SCT065 SCT080 29/21 A2977 RMK AO2A SLP080
                 T02920206 $ =
2018-06-24 16:56 METAR KWRI 242056Z 23010KT 10SM BKN100 29/20 A2977 RMK AO2A SLP080 T02930201
                 57011 $ =
2018-06-24 16:04 METAR KWRI 242004Z 26011KT 10SM FEW060 FEW090 FEW200 31/19 A2977 RMK AO2A WSHFT
                 01 SLP080 $ =
2018-06-24 15:56 METAR KWRI 241956Z 25011KT 10SM FEW060 SCT090 31/20 A2977 RMK AO2A SLP080
                 T03140200 $ =
2018-06-24 14:56 METAR KWRI 241856Z AUTO 26010KT 10SM FEW090 30/19 A2978 RMK AO2 SLP083 T02960190
                 $ =
2018-06-24 13:56 METAR KWRI 241756Z 25013KT 10SM FEW055 FEW170 31/19 A2980 RMK AO2A SLP090
                 T03090192 10309 20209 56009 $ =
2018-06-24 12:56 METAR KWRI 241656Z 25011KT 10SM FEW040 FEW160 FEW190 29/20 A2980 RMK AO2A SLP090
                 T02940197 $ =
2018-06-24 11:56 METAR KWRI 241556Z 26009KT 10SM FEW031 28/21 A2982 RMK AO2A SLP097 T02830205 $ =
2018-06-24 10:56 METAR KWRI 241456Z 24008KT 10SM CLR 27/21 A2983 RMK AO2A SLP100 T02680206 58001
                 $ =
2018-06-24 09:56 METAR KWRI 241356Z 24003KT 10SM FEW014 25/20 A2983 RMK AO2A SLP100 T02470204 $ =

Support USWX by starting your Amazon purchase here.